sensor_id;sensor_type;location;lat;lon;timestamp;pressure;altitude;pressure_sealevel;temperature;humidity
26711;BME280;18311;52.754;18.118;2022-07-19T00:01:06;101083.22;;;19.62;100.00
26711;BME280;18311;52.754;18.118;2022-07-19T00:03:39;101067.37;;;19.56;100.00
26711;BME280;18311;52.754;18.118;2022-07-19T00:06:12;101077.16;;;19.59;100.00
26711;BME280;18311;52.754;18.118;2022-07-19T00:08:43;101079.88;;;19.59;100.00
26711;BME280;18311;52.754;18.118;2022-07-19T00:11:13;101071.84;;;19.57;100.00
26711;BME280;18311;52.754;18.118;2022-07-19T00:13:44;101068.70;;;19.51;100.00
26711;BME280;18311;52.754;18.118;2022-07-19T00:16:16;101072.38;;;19.50;100.00
26711;BME280;18311;52.754;18.118;2022-07-19T00:18:47;101063.28;;;19.51;100.00
26711;BME280;18311;52.754;18.118;2022-07-19T00:21:18;101066.84;;;19.51;100.00
26711;BME280;18311;52.754;18.118;2022-07-19T00:23:49;101068.92;;;19.48;100.00
26711;BME280;18311;52.754;18.118;2022-07-19T00:26:22;101068.92;;;19.48;100.00
26711;BME280;18311;52.754;18.118;2022-07-19T00:28:53;101066.20;;;19.48;100.00
26711;BME280;18311;52.754;18.118;2022-07-19T00:31:24;101075.09;;;19.50;100.00
26711;BME280;18311;52.754;18.118;2022-07-19T00:33:55;101073.59;;;19.46;100.00
26711;BME280;18311;52.754;18.118;2022-07-19T00:36:28;101061.99;;;19.43;100.00
26711;BME280;18311;52.754;18.118;2022-07-19T00:38:59;101058.96;;;19.35;100.00
26711;BME280;18311;52.754;18.118;2022-07-19T00:41:29;101060.25;;;19.42;100.00
26711;BME280;18311;52.754;18.118;2022-07-19T00:44:01;101061.24;;;19.41;100.00
26711;BME280;18311;52.754;18.118;2022-07-19T00:46:34;101066.77;;;19.40;100.00
26711;BME280;18311;52.754;18.118;2022-07-19T00:49:05;101058.75;;;19.38;100.00
26711;BME280;18311;52.754;18.118;2022-07-19T00:51:38;101050.72;;;19.37;100.00
26711;BME280;18311;52.754;18.118;2022-07-19T00:54:13;101051.79;;;19.34;100.00
26711;BME280;18311;52.754;18.118;2022-07-19T00:56:45;101056.71;;;19.29;100.00
26711;BME280;18311;52.754;18.118;2022-07-19T00:59:19;101053.11;;;19.29;100.00
26711;BME280;18311;52.754;18.118;2022-07-19T01:01:50;101053.75;;;19.32;100.00
26711;BME280;18311;52.754;18.118;2022-07-19T01:04:22;101049.54;;;19.28;100.00
26711;BME280;18311;52.754;18.118;2022-07-19T01:06:53;101056.81;;;19.28;100.00
26711;BME280;18311;52.754;18.118;2022-07-19T01:09:24;101054.11;;;19.28;100.00
26711;BME280;18311;52.754;18.118;2022-07-19T01:11:56;101054.42;;;19.23;100.00
26711;BME280;18311;52.754;18.118;2022-07-19T01:14:27;101053.56;;;19.22;100.00
26711;BME280;18311;52.754;18.118;2022-07-19T01:17:00;101057.03;;;19.24;100.00
26711;BME280;18311;52.754;18.118;2022-07-19T01:19:31;101049.86;;;19.23;100.00
26711;BME280;18311;52.754;18.118;2022-07-19T01:22:02;101059.95;;;19.21;100.00
26711;BME280;18311;52.754;18.118;2022-07-19T01:24:33;101051.72;;;19.23;100.00
26711;BME280;18311;52.754;18.118;2022-07-19T01:27:05;101055.82;;;19.29;100.00
26711;BME280;18311;52.754;18.118;2022-07-19T01:29:38;101044.44;;;19.23;100.00
26711;BME280;18311;52.754;18.118;2022-07-19T01:32:09;101040.12;;;19.21;100.00
26711;BME280;18311;52.754;18.118;2022-07-19T01:34:42;101042.62;;;19.24;100.00
26711;BME280;18311;52.754;18.118;2022-07-19T01:37:12;101043.16;;;19.16;100.00
26711;BME280;18311;52.754;18.118;2022-07-19T01:39:43;101041.33;;;19.17;100.00
26711;BME280;18311;52.754;18.118;2022-07-19T01:42:14;101038.62;;;19.17;100.00
26711;BME280;18311;52.754;18.118;2022-07-19T01:44:45;101044.89;;;19.17;100.00
26711;BME280;18311;52.754;18.118;2022-07-19T01:47:16;101036.87;;;19.16;100.00
26711;BME280;18311;52.754;18.118;2022-07-19T01:49:49;101043.61;;;19.10;100.00
26711;BME280;18311;52.754;18.118;2022-07-19T01:52:19;101037.54;;;19.07;100.00
26711;BME280;18311;52.754;18.118;2022-07-19T01:54:50;101037.54;;;19.07;100.00
26711;BME280;18311;52.754;18.118;2022-07-19T01:57:21;101028.41;;;19.08;100.00
26711;BME280;18311;52.754;18.118;2022-07-19T01:59:52;101033.40;;;19.01;100.00
26711;BME280;18311;52.754;18.118;2022-07-19T02:02:23;101027.66;;;19.05;100.00
26711;BME280;18311;52.754;18.118;2022-07-19T02:04:55;101036.00;;;19.02;100.00
26711;BME280;18311;52.754;18.118;2022-07-19T02:07:27;101035.36;;;18.99;100.00
26711;BME280;18311;52.754;18.118;2022-07-19T02:09:58;101031.23;;;18.80;100.00
26711;BME280;18311;52.754;18.118;2022-07-19T02:12:29;101032.94;;;18.81;100.00
26711;BME280;18311;52.754;18.118;2022-07-19T02:15:02;101028.75;;;18.90;100.00
26711;BME280;18311;52.754;18.118;2022-07-19T02:17:33;101034.38;;;18.87;100.00
26711;BME280;18311;52.754;18.118;2022-07-19T02:20:06;101029.95;;;18.86;100.00
26711;BME280;18311;52.754;18.118;2022-07-19T02:22:38;101033.73;;;18.83;100.00
26711;BME280;18311;52.754;18.118;2022-07-19T02:25:09;101033.86;;;18.82;100.00
26711;BME280;18311;52.754;18.118;2022-07-19T02:27:41;101030.58;;;18.77;100.00
26711;BME280;18311;52.754;18.118;2022-07-19T02:30:13;101029.58;;;18.78;100.00
26711;BME280;18311;52.754;18.118;2022-07-19T02:32:44;101025.58;;;18.71;100.00
26711;BME280;18311;52.754;18.118;2022-07-19T02:35:15;101032.50;;;18.75;100.00
26711;BME280;18311;52.754;18.118;2022-07-19T02:37:46;101025.58;;;18.71;100.00
26711;BME280;18311;52.754;18.118;2022-07-19T02:40:17;101024.82;;;18.68;100.00
26711;BME280;18311;52.754;18.118;2022-07-19T02:42:48;101023.83;;;18.69;100.00
26711;BME280;18311;52.754;18.118;2022-07-19T02:45:19;101025.12;;;18.64;100.00
26711;BME280;18311;52.754;18.118;2022-07-19T02:47:50;101023.31;;;18.64;100.00
26711;BME280;18311;52.754;18.118;2022-07-19T02:50:21;101036.17;;;18.61;100.00
26711;BME280;18311;52.754;18.118;2022-07-19T02:52:52;101027.73;;;18.65;100.00
26711;BME280;18311;52.754;18.118;2022-07-19T02:55:23;101030.03;;;18.72;100.00
26711;BME280;18311;52.754;18.118;2022-07-19T02:57:55;101029.24;;;18.69;100.00
26711;BME280;18311;52.754;18.118;2022-07-19T03:00:27;101026.02;;;18.64;100.00
26711;BME280;18311;52.754;18.118;2022-07-19T03:02:58;101016.90;;;18.65;100.00
26711;BME280;18311;52.754;18.118;2022-07-19T03:05:48;101024.38;;;18.62;100.00
26711;BME280;18311;52.754;18.118;2022-07-19T03:08:19;101026.77;;;18.66;100.00
26711;BME280;18311;52.754;18.118;2022-07-19T03:10:50;101022.86;;;18.71;100.00
26711;BME280;18311;52.754;18.118;2022-07-19T03:13:21;101027.42;;;18.70;100.00
26711;BME280;18311;52.754;18.118;2022-07-19T03:15:52;101029.14;;;18.58;100.00
26711;BME280;18311;52.754;18.118;2022-07-19T03:18:23;101030.65;;;18.62;100.00
26711;BME280;18311;52.754;18.118;2022-07-19T03:20:54;101028.59;;;18.53;100.00
26711;BME280;18311;52.754;18.118;2022-07-19T03:23:27;101037.16;;;18.60;100.00
26711;BME280;18311;52.754;18.118;2022-07-19T03:25:59;101038.57;;;18.65;100.00
26711;BME280;18311;52.754;18.118;2022-07-19T03:28:32;101035.55;;;18.70;100.00
26711;BME280;18311;52.754;18.118;2022-07-19T03:31:04;101042.14;;;18.66;100.00
26711;BME280;18311;52.754;18.118;2022-07-19T03:33:35;101046.59;;;18.67;100.00
26711;BME280;18311;52.754;18.118;2022-07-19T03:36:08;101051.16;;;18.66;100.00
26711;BME280;18311;52.754;18.118;2022-07-19T03:38:38;101056.12;;;18.60;100.00
26711;BME280;18311;52.754;18.118;2022-07-19T03:41:09;101055.27;;;18.59;100.00
26711;BME280;18311;52.754;18.118;2022-07-19T03:43:40;101044.74;;;18.67;100.00
26711;BME280;18311;52.754;18.118;2022-07-19T03:46:11;101042.92;;;18.68;100.00
26711;BME280;18311;52.754;18.118;2022-07-19T03:48:42;101049.95;;;18.71;100.00
26711;BME280;18311;52.754;18.118;2022-07-19T03:51:15;101049.64;;;18.75;100.00
26711;BME280;18311;52.754;18.118;2022-07-19T03:53:46;101044.98;;;18.77;100.00
26711;BME280;18311;52.754;18.118;2022-07-19T03:56:17;101057.05;;;18.86;100.00
26711;BME280;18311;52.754;18.118;2022-07-19T03:58:50;101047.40;;;18.95;100.00
26711;BME280;18311;52.754;18.118;2022-07-19T04:01:21;101052.51;;;18.99;100.00
26711;BME280;18311;52.754;18.118;2022-07-19T04:03:53;101061.27;;;18.90;100.00
26711;BME280;18311;52.754;18.118;2022-07-19T04:06:26;101047.61;;;18.92;100.00
26711;BME280;18311;52.754;18.118;2022-07-19T04:08:57;101055.08;;;19.01;100.00
26711;BME280;18311;52.754;18.118;2022-07-19T04:11:28;101054.88;;;19.04;100.00
26711;BME280;18311;52.754;18.118;2022-07-19T04:13:59;101051.09;;;19.07;100.00
26711;BME280;18311;52.754;18.118;2022-07-19T04:16:30;101050.98;;;19.08;100.00
26711;BME280;18311;52.754;18.118;2022-07-19T04:19:01;101057.91;;;19.12;100.00
26711;BME280;18311;52.754;18.118;2022-07-19T04:21:32;101050.32;;;19.17;100.00
26711;BME280;18311;52.754;18.118;2022-07-19T04:24:04;101047.72;;;19.16;100.00
26711;BME280;18311;52.754;18.118;2022-07-19T04:26:37;101052.67;;;19.22;100.00
26711;BME280;18311;52.754;18.118;2022-07-19T04:29:09;101043.16;;;19.16;100.00
26711;BME280;18311;52.754;18.118;2022-07-19T04:31:40;101054.42;;;19.23;100.00
26711;BME280;18311;52.754;18.118;2022-07-19T04:34:11;101049.44;;;19.30;100.00
26711;BME280;18311;52.754;18.118;2022-07-19T04:36:42;101043.02;;;19.31;100.00
26711;BME280;18311;52.754;18.118;2022-07-19T04:39:14;101042.59;;;19.37;100.00
26711;BME280;18311;52.754;18.118;2022-07-19T04:41:46;101054.08;;;19.40;100.00
26711;BME280;18311;52.754;18.118;2022-07-19T04:44:17;101049.61;;;19.52;100.00
26711;BME280;18311;52.754;18.118;2022-07-19T04:46:48;101052.22;;;19.54;100.00
26711;BME280;18311;52.754;18.118;2022-07-19T04:49:19;101046.43;;;19.58;100.00
26711;BME280;18311;52.754;18.118;2022-07-19T04:51:50;101048.50;;;19.55;100.00
26711;BME280;18311;52.754;18.118;2022-07-19T04:54:21;101042.64;;;19.61;100.00
26711;BME280;18311;52.754;18.118;2022-07-19T04:56:52;101043.81;;;19.70;100.00
26711;BME280;18311;52.754;18.118;2022-07-19T04:59:23;101053.67;;;19.84;100.00
26711;BME280;18311;52.754;18.118;2022-07-19T05:01:54;101040.95;;;19.84;100.00
26711;BME280;18311;52.754;18.118;2022-07-19T05:04:27;101047.02;;;19.88;100.00
26711;BME280;18311;52.754;18.118;2022-07-19T05:07:00;101041.16;;;19.94;100.00
26711;BME280;18311;52.754;18.118;2022-07-19T05:09:31;101041.42;;;20.02;100.00
26711;BME280;18311;52.754;18.118;2022-07-19T05:12:02;101044.95;;;19.91;100.00
26711;BME280;18311;52.754;18.118;2022-07-19T05:14:34;101047.55;;;19.93;100.00
26711;BME280;18311;52.754;18.118;2022-07-19T05:17:05;101051.94;;;20.07;100.00
26711;BME280;18311;52.754;18.118;2022-07-19T05:19:37;101051.45;;;20.13;100.00
26711;BME280;18311;52.754;18.118;2022-07-19T05:22:07;101053.91;;;20.29;100.00
26711;BME280;18311;52.754;18.118;2022-07-19T05:24:38;101053.50;;;20.22;100.00
26711;BME280;18311;52.754;18.118;2022-07-19T05:27:11;101053.30;;;20.36;100.00
26711;BME280;18311;52.754;18.118;2022-07-19T05:29:42;101051.55;;;20.35;100.00
26711;BME280;18311;52.754;18.118;2022-07-19T05:32:13;101053.49;;;20.58;100.00
26711;BME280;18311;52.754;18.118;2022-07-19T05:34:44;101045.88;;;20.63;100.00
26711;BME280;18311;52.754;18.118;2022-07-19T05:37:15;101046.90;;;20.73;100.00
26711;BME280;18311;52.754;18.118;2022-07-19T05:39:46;101046.17;;;20.82;100.00
26711;BME280;18311;52.754;18.118;2022-07-19T05:42:17;101048.03;;;20.82;100.00
26711;BME280;18311;52.754;18.118;2022-07-19T05:44:48;101043.72;;;21.02;100.00
26711;BME280;18311;52.754;18.118;2022-07-19T05:47:19;101045.70;;;21.00;100.00
26711;BME280;18311;52.754;18.118;2022-07-19T05:49:51;101038.54;;;21.10;100.00
26711;BME280;18311;52.754;18.118;2022-07-19T05:52:22;101036.94;;;21.19;100.00
26711;BME280;18311;52.754;18.118;2022-07-19T05:54:54;101025.20;;;21.18;100.00
26711;BME280;18311;52.754;18.118;2022-07-19T05:57:25;101032.12;;;21.34;100.00
26711;BME280;18311;52.754;18.118;2022-07-19T05:59:56;101033.98;;;21.22;100.00
26711;BME280;18311;52.754;18.118;2022-07-19T06:02:28;101039.81;;;21.51;100.00
26711;BME280;18311;52.754;18.118;2022-07-19T06:05:01;101032.10;;;21.56;100.00
26711;BME280;18311;52.754;18.118;2022-07-19T06:07:31;101037.02;;;21.74;100.00
26711;BME280;18311;52.754;18.118;2022-07-19T06:10:03;101029.09;;;21.82;100.00
26711;BME280;18311;52.754;18.118;2022-07-19T06:12:34;101028.47;;;21.90;100.00
26711;BME280;18311;52.754;18.118;2022-07-19T06:15:05;101034.39;;;21.95;100.00
26711;BME280;18311;52.754;18.118;2022-07-19T06:17:37;101038.09;;;21.94;100.00
26711;BME280;18311;52.754;18.118;2022-07-19T06:20:09;101035.66;;;21.79;100.00
26711;BME280;18311;52.754;18.118;2022-07-19T06:22:40;101027.63;;;22.10;100.00
26711;BME280;18311;52.754;18.118;2022-07-19T06:25:11;101029.47;;;22.21;100.00
26711;BME280;18311;52.754;18.118;2022-07-19T06:27:42;101033.52;;;22.27;100.00
26711;BME280;18311;52.754;18.118;2022-07-19T06:30:12;101035.64;;;22.23;100.00
26711;BME280;18311;52.754;18.118;2022-07-19T06:32:43;101028.16;;;22.36;100.00
26711;BME280;18311;52.754;18.118;2022-07-19T06:35:14;101024.59;;;22.57;100.00
26711;BME280;18311;52.754;18.118;2022-07-19T06:37:45;101027.86;;;22.51;100.00
26711;BME280;18311;52.754;18.118;2022-07-19T06:40:17;101032.25;;;22.63;100.00
26711;BME280;18311;52.754;18.118;2022-07-19T06:42:48;101023.48;;;22.59;100.00
26711;BME280;18311;52.754;18.118;2022-07-19T06:45:19;101023.27;;;22.72;100.00
26711;BME280;18311;52.754;18.118;2022-07-19T06:47:50;101032.55;;;22.70;100.00
26711;BME280;18311;52.754;18.118;2022-07-19T06:50:21;101029.38;;;22.86;100.00
26711;BME280;18311;52.754;18.118;2022-07-19T06:52:56;101021.72;;;22.79;100.00
26711;BME280;18311;52.754;18.118;2022-07-19T06:55:26;101027.64;;;22.85;100.00
26711;BME280;18311;52.754;18.118;2022-07-19T06:57:58;101016.95;;;23.03;100.00
26711;BME280;18311;52.754;18.118;2022-07-19T07:00:29;101022.05;;;23.07;100.00
26711;BME280;18311;52.754;18.118;2022-07-19T07:03:02;101020.92;;;23.50;100.00
26711;BME280;18311;52.754;18.118;2022-07-19T07:05:33;101018.03;;;23.52;100.00
26711;BME280;18311;52.754;18.118;2022-07-19T07:08:04;101004.72;;;23.78;100.00
26711;BME280;18311;52.754;18.118;2022-07-19T07:10:37;101004.23;;;23.94;100.00
26711;BME280;18311;52.754;18.118;2022-07-19T07:13:09;100994.02;;;24.25;100.00
26711;BME280;18311;52.754;18.118;2022-07-19T07:15:41;101006.66;;;24.36;100.00
26711;BME280;18311;52.754;18.118;2022-07-19T07:18:14;100999.31;;;24.56;100.00
26711;BME280;18311;52.754;18.118;2022-07-19T07:20:46;101011.66;;;24.80;100.00
26711;BME280;18311;52.754;18.118;2022-07-19T07:23:17;101001.84;;;24.87;100.00
26711;BME280;18311;52.754;18.118;2022-07-19T07:25:51;101004.30;;;24.80;100.00
26711;BME280;18311;52.754;18.118;2022-07-19T07:28:23;101010.14;;;24.95;100.00
26711;BME280;18311;52.754;18.118;2022-07-19T07:30:55;101003.88;;;25.13;100.00
26711;BME280;18311;52.754;18.118;2022-07-19T07:33:28;101005.47;;;25.25;100.00
26711;BME280;18311;52.754;18.118;2022-07-19T07:35:59;101012.55;;;25.46;100.00
26711;BME280;18311;52.754;18.118;2022-07-19T07:38:30;101007.73;;;25.57;100.00
26711;BME280;18311;52.754;18.118;2022-07-19T07:41:02;101000.57;;;25.74;100.00
26711;BME280;18311;52.754;18.118;2022-07-19T07:43:36;101005.48;;;25.98;100.00
26711;BME280;18311;52.754;18.118;2022-07-19T07:46:07;100997.75;;;25.84;87.56
26711;BME280;18311;52.754;18.118;2022-07-19T07:48:38;100998.90;;;26.09;100.00
26711;BME280;18311;52.754;18.118;2022-07-19T07:51:09;100998.88;;;26.27;100.00
26711;BME280;18311;52.754;18.118;2022-07-19T07:53:42;100988.56;;;26.47;85.27
26711;BME280;18311;52.754;18.118;2022-07-19T07:56:13;100991.53;;;26.54;100.00
26711;BME280;18311;52.754;18.118;2022-07-19T07:58:45;100997.91;;;26.54;87.52
26711;BME280;18311;52.754;18.118;2022-07-19T08:01:17;100986.75;;;26.74;72.03
26711;BME280;18311;52.754;18.118;2022-07-19T08:03:48;100992.77;;;26.78;84.03
26711;BME280;18311;52.754;18.118;2022-07-19T08:06:20;100991.79;;;26.87;75.65
26711;BME280;18311;52.754;18.118;2022-07-19T08:08:51;100995.06;;;26.90;67.63
26711;BME280;18311;52.754;18.118;2022-07-19T08:11:22;100986.11;;;27.15;63.51
26711;BME280;18311;52.754;18.118;2022-07-19T08:13:53;100997.38;;;27.38;63.41
26711;BME280;18311;52.754;18.118;2022-07-19T08:16:24;100993.30;;;27.42;64.29
26711;BME280;18311;52.754;18.118;2022-07-19T08:18:56;100982.55;;;27.65;55.13
26711;BME280;18311;52.754;18.118;2022-07-19T08:21:27;100987.00;;;27.58;56.92
26711;BME280;18311;52.754;18.118;2022-07-19T08:23:58;100985.84;;;27.77;54.27
26711;BME280;18311;52.754;18.118;2022-07-19T08:26:29;100987.57;;;27.86;54.19
26711;BME280;18311;52.754;18.118;2022-07-19T08:29:01;100989.33;;;27.95;54.67
26711;BME280;18311;52.754;18.118;2022-07-19T08:31:31;100982.80;;;28.04;51.66
26711;BME280;18311;52.754;18.118;2022-07-19T08:34:03;100988.49;;;28.03;51.96
26711;BME280;18311;52.754;18.118;2022-07-19T08:36:34;100982.31;;;28.17;53.16
26711;BME280;18311;52.754;18.118;2022-07-19T08:39:05;100977.67;;;28.59;50.36
26711;BME280;18311;52.754;18.118;2022-07-19T08:41:37;100983.50;;;28.23;50.93
26711;BME280;18311;52.754;18.118;2022-07-19T08:44:08;100985.91;;;28.51;49.64
26711;BME280;18311;52.754;18.118;2022-07-19T08:46:42;100977.81;;;28.49;47.15
26711;BME280;18311;52.754;18.118;2022-07-19T08:49:15;100983.48;;;28.39;47.79
26711;BME280;18311;52.754;18.118;2022-07-19T08:51:48;100976.12;;;28.40;44.71
26711;BME280;18311;52.754;18.118;2022-07-19T08:54:19;100976.11;;;28.65;48.12
26711;BME280;18311;52.754;18.118;2022-07-19T08:56:50;100980.20;;;28.85;47.37
26711;BME280;18311;52.754;18.118;2022-07-19T08:59:40;100979.30;;;28.93;44.38
26711;BME280;18311;52.754;18.118;2022-07-19T09:02:13;100980.16;;;28.93;46.11
26711;BME280;18311;52.754;18.118;2022-07-19T09:07:40;100978.89;;;29.12;44.48
26711;BME280;18311;52.754;18.118;2022-07-19T09:10:18;100967.71;;;29.22;40.64
26711;BME280;18311;52.754;18.118;2022-07-19T09:13:10;100967.28;;;28.94;42.83
26711;BME280;18311;52.754;18.118;2022-07-19T09:15:54;100968.94;;;29.11;43.22
26711;BME280;18311;52.754;18.118;2022-07-19T09:21:01;100966.00;;;29.52;42.75
26711;BME280;18311;52.754;18.118;2022-07-19T09:23:35;100966.48;;;29.25;44.25
26711;BME280;18311;52.754;18.118;2022-07-19T09:26:07;100971.29;;;29.62;41.88
26711;BME280;18311;52.754;18.118;2022-07-19T09:28:38;100966.98;;;29.60;43.52
26711;BME280;18311;52.754;18.118;2022-07-19T09:31:10;100956.71;;;29.85;43.63
26711;BME280;18311;52.754;18.118;2022-07-19T09:33:41;100960.27;;;29.93;42.77
26711;BME280;18311;52.754;18.118;2022-07-19T09:36:14;100937.32;;;29.38;43.10
26711;BME280;18311;52.754;18.118;2022-07-19T09:38:45;100958.09;;;29.81;43.19
26711;BME280;18311;52.754;18.118;2022-07-19T09:41:19;100956.21;;;30.04;41.99
26711;BME280;18311;52.754;18.118;2022-07-19T09:43:55;100958.05;;;29.89;41.93
26711;BME280;18311;52.754;18.118;2022-07-19T09:46:41;100959.63;;;30.06;41.17
26711;BME280;18311;52.754;18.118;2022-07-19T09:49:18;100963.30;;;30.22;40.73
26711;BME280;18311;52.754;18.118;2022-07-19T09:51:51;100957.97;;;30.20;40.73
26711;BME280;18311;52.754;18.118;2022-07-19T09:54:26;100954.05;;;30.38;38.92
26711;BME280;18311;52.754;18.118;2022-07-19T09:56:58;100960.84;;;30.27;40.48
26711;BME280;18311;52.754;18.118;2022-07-19T09:59:30;100949.13;;;30.63;41.15
26711;BME280;18311;52.754;18.118;2022-07-19T10:02:03;100943.23;;;30.51;41.03
26711;BME280;18311;52.754;18.118;2022-07-19T10:04:35;100949.23;;;30.31;40.90
26711;BME280;18311;52.754;18.118;2022-07-19T10:07:06;100935.95;;;30.35;42.18
26711;BME280;18311;52.754;18.118;2022-07-19T10:09:39;100940.88;;;30.25;39.42
26711;BME280;18311;52.754;18.118;2022-07-19T10:12:11;100951.29;;;30.38;41.58
26711;BME280;18311;52.754;18.118;2022-07-19T10:14:43;100947.97;;;30.19;38.97
26711;BME280;18311;52.754;18.118;2022-07-19T10:17:47;100935.77;;;30.37;41.31
26711;BME280;18311;52.754;18.118;2022-07-19T10:19:57;100930.10;;;30.68;40.28
26711;BME280;18311;52.754;18.118;2022-07-19T10:22:29;100933.52;;;30.70;40.15
26711;BME280;18311;52.754;18.118;2022-07-19T10:27:39;100931.95;;;31.05;40.73
26711;BME280;18311;52.754;18.118;2022-07-19T10:32:47;100929.36;;;30.74;38.12
26711;BME280;18311;52.754;18.118;2022-07-19T10:40:41;100929.66;;;31.09;40.68
26711;BME280;18311;52.754;18.118;2022-07-19T10:43:21;100922.41;;;31.08;37.68
26711;BME280;18311;52.754;18.118;2022-07-19T10:46:07;100933.02;;;31.41;36.93
26711;BME280;18311;52.754;18.118;2022-07-19T10:48:48;100926.11;;;31.15;36.84
26711;BME280;18311;52.754;18.118;2022-07-19T10:51:30;100925.92;;;31.68;39.85
26711;BME280;18311;52.754;18.118;2022-07-19T10:54:04;100920.46;;;31.38;39.22
26711;BME280;18311;52.754;18.118;2022-07-19T10:56:38;100918.13;;;31.78;39.51
26711;BME280;18311;52.754;18.118;2022-07-19T10:59:12;100917.55;;;31.47;37.30
26711;BME280;18311;52.754;18.118;2022-07-19T11:01:56;100907.80;;;31.66;36.68
26711;BME280;18311;52.754;18.118;2022-07-19T11:04:34;100912.48;;;31.65;35.83
26711;BME280;18311;52.754;18.118;2022-07-19T11:07:12;100909.38;;;31.75;36.49
26711;BME280;18311;52.754;18.118;2022-07-19T11:09:49;100895.36;;;31.76;36.31
26711;BME280;18311;52.754;18.118;2022-07-19T11:12:28;100893.97;;;31.87;34.96
26711;BME280;18311;52.754;18.118;2022-07-19T11:15:03;100896.26;;;32.27;34.49
26711;BME280;18311;52.754;18.118;2022-07-19T11:17:35;100902.81;;;32.19;38.50
26711;BME280;18311;52.754;18.118;2022-07-19T11:20:11;100897.16;;;32.06;33.89
26711;BME280;18311;52.754;18.118;2022-07-19T11:22:46;100895.23;;;32.34;36.98
26711;BME280;18311;52.754;18.118;2022-07-19T11:25:23;100899.78;;;32.42;36.67
26711;BME280;18311;52.754;18.118;2022-07-19T11:27:56;100893.74;;;32.32;34.29
26711;BME280;18311;52.754;18.118;2022-07-19T11:30:30;100879.21;;;32.23;33.92
26711;BME280;18311;52.754;18.118;2022-07-19T11:33:03;100886.09;;;31.84;35.01
26711;BME280;18311;52.754;18.118;2022-07-19T11:35:36;100879.16;;;32.16;34.96
26711;BME280;18311;52.754;18.118;2022-07-19T11:38:07;100873.50;;;32.03;34.63
26711;BME280;18311;52.754;18.118;2022-07-19T11:40:38;100865.73;;;31.92;34.24
26711;BME280;18311;52.754;18.118;2022-07-19T11:43:09;100865.95;;;32.12;34.46
26711;BME280;18311;52.754;18.118;2022-07-19T11:45:44;100870.36;;;32.69;35.32
26711;BME280;18311;52.754;18.118;2022-07-19T11:48:29;100864.53;;;32.23;33.63
26711;BME280;18311;52.754;18.118;2022-07-19T11:53:34;100862.53;;;32.45;33.54
26711;BME280;18311;52.754;18.118;2022-07-19T11:56:20;100853.59;;;32.78;34.19
26711;BME280;18311;52.754;18.118;2022-07-19T11:58:54;100853.07;;;32.61;35.43
26711;BME280;18311;52.754;18.118;2022-07-19T12:01:36;100861.53;;;32.87;33.36
26711;BME280;18311;52.754;18.118;2022-07-19T12:04:04;100859.97;;;32.71;34.11
26711;BME280;18311;52.754;18.118;2022-07-19T12:06:41;100856.60;;;32.83;34.43
26711;BME280;18311;52.754;18.118;2022-07-19T12:09:15;100851.70;;;32.85;36.14
26711;BME280;18311;52.754;18.118;2022-07-19T12:11:51;100848.88;;;32.36;34.69
26711;BME280;18311;52.754;18.118;2022-07-19T12:14:31;100845.68;;;32.40;38.12
26711;BME280;18311;52.754;18.118;2022-07-19T12:17:22;100851.66;;;32.43;38.84
26711;BME280;18311;52.754;18.118;2022-07-19T12:20:08;100847.80;;;32.37;34.72
26711;BME280;18311;52.754;18.118;2022-07-19T12:22:41;100847.45;;;32.47;35.21
26711;BME280;18311;52.754;18.118;2022-07-19T12:25:13;100847.69;;;32.52;38.44
26711;BME280;18311;52.754;18.118;2022-07-19T12:27:44;100849.83;;;32.57;36.42
26711;BME280;18311;52.754;18.118;2022-07-19T12:30:21;100849.13;;;32.77;36.03
26711;BME280;18311;52.754;18.118;2022-07-19T12:32:51;100847.69;;;32.87;35.58
26711;BME280;18311;52.754;18.118;2022-07-19T12:35:23;100846.46;;;32.27;35.42
26711;BME280;18311;52.754;18.118;2022-07-19T12:38:02;100841.19;;;32.67;36.51
26711;BME280;18311;52.754;18.118;2022-07-19T12:40:28;100838.02;;;33.25;33.01
26711;BME280;18311;52.754;18.118;2022-07-19T12:43:00;100848.05;;;32.78;33.77
26711;BME280;18311;52.754;18.118;2022-07-19T12:45:35;100853.93;;;33.03;34.37
26711;BME280;18311;52.754;18.118;2022-07-19T12:48:08;100830.92;;;33.09;33.39
26711;BME280;18311;52.754;18.118;2022-07-19T12:50:43;100836.78;;;33.41;31.33
26711;BME280;18311;52.754;18.118;2022-07-19T12:53:16;100836.58;;;32.81;34.00
26711;BME280;18311;52.754;18.118;2022-07-19T12:55:48;100838.91;;;33.39;32.81
26711;BME280;18311;52.754;18.118;2022-07-19T12:58:19;100840.08;;;33.09;31.36
26711;BME280;18311;52.754;18.118;2022-07-19T13:01:08;100834.33;;;33.11;30.81
26711;BME280;18311;52.754;18.118;2022-07-19T13:03:42;100828.12;;;33.02;31.10
26711;BME280;18311;52.754;18.118;2022-07-19T13:06:13;100829.09;;;33.43;31.26
26711;BME280;18311;52.754;18.118;2022-07-19T13:08:44;100830.35;;;33.27;33.14
26711;BME280;18311;52.754;18.118;2022-07-19T13:11:16;100828.27;;;33.49;32.58
26711;BME280;18311;52.754;18.118;2022-07-19T13:13:47;100818.61;;;33.18;31.31
26711;BME280;18311;52.754;18.118;2022-07-19T13:16:19;100820.15;;;33.41;31.83
26711;BME280;18311;52.754;18.118;2022-07-19T13:18:52;100817.45;;;33.67;31.60